createdAt,value
2022-11-29T00:01:23.888Z,98.10
2022-11-29T00:03:51.891Z,97.18
2022-11-29T00:06:21.488Z,97.20
2022-11-29T00:08:49.367Z,97.67
2022-11-29T00:11:40.200Z,97.26
2022-11-29T00:14:09.827Z,96.87
2022-11-29T00:16:36.906Z,97.84
2022-11-29T00:19:04.377Z,97.06
2022-11-29T00:21:31.367Z,97.23
2022-11-29T00:23:58.506Z,97.11
2022-11-29T00:26:25.586Z,97.21
2022-11-29T00:28:54.098Z,97.46
2022-11-29T00:31:32.016Z,97.16
2022-11-29T00:34:03.919Z,96.31
2022-11-29T00:36:31.230Z,96.77
2022-11-29T00:38:58.473Z,95.90
2022-11-29T00:41:25.614Z,95.96
2022-11-29T00:43:53.071Z,95.51
2022-11-29T00:46:20.196Z,96.25
2022-11-29T00:48:47.316Z,96.38
2022-11-29T00:51:14.462Z,96.36
2022-11-29T00:53:41.428Z,96.58
2022-11-29T00:56:08.791Z,96.65
2022-11-29T00:58:36.800Z,96.93
2022-11-29T01:01:04.315Z,96.60
2022-11-29T01:03:31.697Z,96.86
2022-11-29T01:06:08.883Z,97.13
2022-11-29T01:08:36.534Z,96.96
2022-11-29T01:11:12.512Z,96.79
2022-11-29T01:13:39.998Z,97.01
2022-11-29T01:16:07.454Z,97.30
2022-11-29T01:18:35.062Z,97.32
2022-11-29T01:21:06.520Z,97.22
2022-11-29T01:23:34.893Z,96.79
2022-11-29T01:26:09.117Z,97.03
2022-11-29T01:28:37.194Z,97.84
2022-11-29T01:31:08.931Z,97.53
2022-11-29T01:33:37.293Z,97.31
2022-11-29T01:36:05.722Z,97.49
2022-11-29T01:38:33.235Z,97.38
2022-11-29T01:41:28.529Z,97.10
2022-11-29T01:44:03.655Z,97.02
2022-11-29T01:46:39.481Z,97.28
2022-11-29T01:49:17.470Z,97.05
2022-11-29T01:52:19.348Z,97.66
2022-11-29T01:54:51.114Z,96.83
2022-11-29T01:57:20.340Z,96.75
2022-11-29T01:59:52.580Z,96.13
2022-11-29T02:02:31.199Z,95.98
2022-11-29T02:05:00.587Z,96.26
2022-11-29T02:07:27.693Z,96.47
2022-11-29T02:09:54.734Z,96.02
2022-11-29T02:12:27.533Z,95.38
2022-11-29T02:15:49.749Z,95.50
2022-11-29T02:18:33.269Z,94.95
2022-11-29T02:21:11.463Z,95.29
2022-11-29T02:24:03.822Z,95.64
2022-11-29T02:26:57.929Z,95.30
2022-11-29T02:29:55.986Z,95.52
2022-11-29T02:32:38.016Z,94.69
2022-11-29T02:35:10.918Z,94.31
2022-11-29T02:37:50.043Z,94.23
2022-11-29T02:40:25.865Z,94.03
2022-11-29T02:43:11.549Z,94.30
2022-11-29T02:46:03.233Z,94.63
2022-11-29T02:48:45.412Z,94.47
2022-11-29T02:51:23.356Z,93.89
2022-11-29T02:53:53.596Z,93.02
2022-11-29T02:56:20.559Z,93.88
2022-11-29T02:58:55.917Z,93.37
2022-11-29T03:01:33.961Z,93.37
2022-11-29T03:04:20.552Z,93.85
2022-11-29T03:07:13.348Z,93.64
2022-11-29T03:10:32.699Z,93.83
2022-11-29T03:13:02.306Z,93.47
2022-11-29T03:15:33.590Z,93.51
2022-11-29T03:18:25.442Z,93.13
2022-11-29T03:20:52.469Z,94.07
2022-11-29T03:23:37.295Z,92.99
2022-11-29T03:26:24.791Z,92.67
2022-11-29T03:28:56.426Z,93.21
2022-11-29T03:31:35.662Z,93.11
2022-11-29T03:34:41.038Z,93.09
2022-11-29T03:37:49.410Z,92.36
2022-11-29T03:40:21.679Z,93.33
2022-11-29T03:42:56.558Z,92.55
2022-11-29T03:45:39.668Z,92.33
2022-11-29T03:48:22.071Z,92.67
2022-11-29T03:51:01.306Z,91.89
2022-11-29T03:53:34.326Z,92.00
2022-11-29T03:56:03.543Z,91.52
2022-11-29T03:58:33.316Z,91.26
2022-11-29T04:01:30.645Z,89.90
2022-11-29T04:04:03.465Z,90.79
2022-11-29T04:07:00.868Z,90.12
2022-11-29T04:09:30.815Z,90.77
2022-11-29T04:12:13.048Z,90.39
2022-11-29T04:14:52.199Z,90.63
2022-11-29T04:17:27.963Z,89.68
2022-11-29T04:20:10.691Z,90.18
2022-11-29T04:22:54.102Z,89.36
2022-11-29T04:25:39.729Z,89.84
2022-11-29T04:28:36.626Z,89.27
2022-11-29T04:31:24.759Z,89.87
2022-11-29T04:34:16.410Z,89.84
2022-11-29T04:37:18.677Z,89.63
2022-11-29T04:40:47.114Z,88.63
2022-11-29T04:43:13.997Z,89.44
2022-11-29T04:46:14.888Z,89.11
2022-11-29T04:49:07.397Z,89.00
2022-11-29T04:51:52.217Z,89.04
2022-11-29T04:54:49.414Z,90.20
2022-11-29T04:57:34.541Z,89.75
2022-11-29T05:00:07.411Z,90.39
2022-11-29T05:02:43.600Z,90.36
2022-11-29T05:05:31.685Z,90.94
2022-11-29T05:08:17.590Z,90.56
2022-11-29T05:11:26.264Z,90.99
2022-11-29T05:14:18.936Z,90.49
2022-11-29T05:17:09.707Z,91.33
2022-11-29T05:19:58.585Z,89.94
2022-11-29T05:22:47.638Z,89.78
2022-11-29T05:25:37.460Z,91.20
2022-11-29T05:28:16.761Z,90.21
2022-11-29T05:30:43.720Z,90.63
2022-11-29T05:33:28.919Z,90.45
2022-11-29T05:36:08.794Z,90.76
2022-11-29T05:39:01.338Z,89.95
2022-11-29T05:41:52.734Z,90.24
2022-11-29T05:44:41.516Z,89.63
2022-11-29T05:47:10.312Z,90.01
2022-11-29T05:49:50.200Z,90.98
2022-11-29T05:52:42.368Z,89.65
2022-11-29T05:55:51.907Z,90.15
2022-11-29T05:58:40.141Z,90.55
2022-11-29T06:01:22.891Z,89.40
2022-11-29T06:04:28.868Z,89.84
2022-11-29T06:07:04.591Z,90.47
2022-11-29T06:10:01.620Z,90.18
2022-11-29T06:12:37.529Z,90.77
2022-11-29T06:15:23.570Z,90.77
2022-11-29T06:17:55.317Z,89.95
2022-11-29T06:21:14.874Z,90.86
2022-11-29T06:23:59.899Z,91.19
2022-11-29T06:26:42.643Z,90.73
2022-11-29T06:29:41.954Z,90.19
2022-11-29T06:32:42.386Z,90.60
2022-11-29T06:35:33.033Z,90.74
2022-11-29T06:38:06.795Z,89.49
2022-11-29T06:40:34.034Z,89.30
2022-11-29T06:43:01.247Z,89.68
2022-11-29T06:45:28.637Z,90.62
2022-11-29T06:48:03.789Z,89.08
2022-11-29T06:50:45.480Z,89.87
2022-11-29T06:53:33.698Z,89.70
2022-11-29T06:56:21.207Z,88.89
2022-11-29T06:59:04.416Z,90.13
2022-11-29T07:01:37.632Z,89.18
2022-11-29T07:04:15.763Z,88.52
2022-11-29T07:06:43.177Z,88.92
2022-11-29T07:09:46.639Z,89.00
2022-11-29T07:12:14.380Z,89.98
2022-11-29T07:14:41.670Z,88.57
2022-11-29T07:17:20.602Z,89.78
2022-11-29T07:20:12.365Z,88.45
2022-11-29T07:23:03.367Z,88.39
2022-11-29T07:26:02.827Z,87.95
2022-11-29T07:28:48.583Z,87.57
2022-11-29T07:31:34.795Z,87.49
2022-11-29T07:34:22.288Z,87.95
2022-11-29T07:36:52.179Z,86.73
2022-11-29T07:39:30.680Z,86.48
2022-11-29T07:42:10.833Z,85.32
2022-11-29T07:44:37.615Z,85.25
2022-11-29T07:47:05.058Z,86.08
2022-11-29T07:49:32.462Z,86.39
2022-11-29T07:51:59.505Z,86.68
2022-11-29T07:54:26.880Z,85.94
2022-11-29T07:56:53.982Z,86.01
2022-11-29T07:59:21.056Z,84.93
2022-11-29T08:01:48.681Z,85.66
2022-11-29T08:04:19.090Z,84.22
2022-11-29T08:06:46.133Z,84.48
2022-11-29T08:09:13.581Z,84.75
2022-11-29T08:11:40.689Z,84.64
2022-11-29T08:14:07.859Z,82.69
2022-11-29T08:16:34.869Z,82.45
2022-11-29T08:19:01.989Z,82.47
2022-11-29T08:21:28.901Z,82.62
2022-11-29T08:23:55.973Z,81.99
2022-11-29T08:26:26.885Z,82.22
2022-11-29T08:28:58.100Z,81.00
2022-11-29T08:31:26.433Z,80.19
2022-11-29T08:33:53.574Z,80.36
2022-11-29T08:36:21.078Z,80.18
2022-11-29T08:38:48.389Z,79.96
2022-11-29T08:41:17.477Z,80.75
2022-11-29T08:43:44.789Z,80.78
2022-11-29T08:46:18.035Z,81.35
2022-11-29T08:48:46.710Z,80.91
2022-11-29T08:51:14.190Z,81.39
2022-11-29T08:53:46.444Z,80.70
2022-11-29T08:59:06.152Z,80.95
2022-11-29T09:01:33.251Z,80.32
2022-11-29T09:04:00.204Z,81.85
2022-11-29T09:06:31.892Z,81.48
2022-11-29T09:09:00.525Z,80.81
2022-11-29T09:11:29.449Z,80.60
2022-11-29T09:13:59.931Z,80.54
2022-11-29T09:16:30.974Z,81.77
2022-11-29T09:18:58.068Z,80.65
2022-11-29T09:21:27.913Z,81.05
2022-11-29T09:23:59.344Z,80.72
2022-11-29T09:26:29.357Z,80.36
2022-11-29T09:28:58.425Z,80.79
2022-11-29T09:31:27.269Z,80.33
2022-11-29T09:33:55.079Z,79.78
2022-11-29T09:36:27.853Z,80.59
2022-11-29T09:38:55.702Z,80.99
2022-11-29T09:41:22.627Z,80.72
2022-11-29T09:44:17.117Z,80.56
2022-11-29T09:47:17.637Z,80.61
2022-11-29T09:49:56.801Z,81.02
2022-11-29T09:52:32.846Z,80.63
2022-11-29T09:55:10.416Z,80.67
2022-11-29T09:57:38.710Z,81.30
2022-11-29T10:00:14.456Z,80.89
2022-11-29T10:02:47.928Z,80.89
2022-11-29T10:05:28.603Z,81.46
2022-11-29T10:08:06.853Z,80.79
2022-11-29T10:10:41.734Z,80.95
2022-11-29T10:13:11.701Z,81.06
2022-11-29T10:15:44.582Z,80.65
2022-11-29T10:18:22.208Z,80.17
2022-11-29T10:20:51.915Z,79.97
2022-11-29T10:23:29.850Z,79.88
2022-11-29T10:25:58.191Z,79.34
2022-11-29T10:28:30.771Z,78.92
2022-11-29T10:31:14.360Z,78.87
2022-11-29T10:33:42.101Z,79.13
2022-11-29T10:36:35.296Z,78.73
2022-11-29T10:39:22.385Z,79.01
2022-11-29T10:42:04.008Z,79.07
2022-11-29T10:44:33.405Z,78.90
2022-11-29T10:47:09.443Z,78.85
2022-11-29T10:49:40.280Z,79.50
2022-11-29T10:52:19.609Z,79.96
2022-11-29T10:54:50.098Z,80.62
2022-11-29T10:57:22.357Z,80.57
2022-11-29T11:00:09.957Z,81.27
2022-11-29T11:02:38.097Z,81.06
2022-11-29T11:05:18.602Z,81.32
2022-11-29T11:07:47.580Z,81.81
2022-11-29T11:10:27.315Z,81.61
2022-11-29T11:13:08.204Z,81.82
2022-11-29T11:15:35.531Z,81.15
2022-11-29T11:18:05.691Z,81.48
2022-11-29T11:20:37.470Z,81.68
2022-11-29T11:23:08.144Z,81.85
2022-11-29T11:25:39.725Z,81.61
2022-11-29T11:28:22.389Z,81.53
2022-11-29T11:31:05.770Z,81.85
2022-11-29T11:33:42.432Z,81.96
2022-11-29T11:36:21.282Z,82.22
2022-11-29T11:39:18.502Z,82.24
2022-11-29T11:42:05.410Z,81.44
2022-11-29T11:44:47.563Z,83.62
2022-11-29T11:47:24.464Z,83.16
2022-11-29T11:50:00.301Z,83.40
2022-11-29T11:52:33.797Z,83.77
2022-11-29T11:55:18.624Z,82.50
2022-11-29T11:57:45.796Z,83.38
2022-11-29T12:01:03.493Z,82.15
2022-11-29T12:04:11.733Z,82.57
2022-11-29T12:06:47.567Z,81.87
2022-11-29T12:09:35.170Z,81.34
2022-11-29T12:12:13.929Z,82.07
2022-11-29T12:14:59.655Z,80.73
2022-11-29T12:17:40.163Z,81.49
2022-11-29T12:20:29.515Z,81.50
2022-11-29T12:23:03.462Z,81.15
2022-11-29T12:25:46.432Z,81.06
2022-11-29T12:28:20.067Z,81.36
2022-11-29T12:31:33.754Z,81.06
2022-11-29T12:34:22.422Z,80.60
2022-11-29T12:37:22.427Z,81.39
2022-11-29T12:40:24.351Z,81.71
2022-11-29T12:43:18.924Z,80.88
2022-11-29T12:45:49.492Z,81.82
2022-11-29T12:48:29.851Z,81.56
2022-11-29T12:51:05.979Z,82.72
2022-11-29T12:53:38.694Z,83.74
2022-11-29T12:56:28.247Z,83.24
2022-11-29T12:59:14.098Z,84.99
2022-11-29T13:02:02.979Z,84.67
2022-11-29T13:04:39.748Z,85.15
2022-11-29T13:07:23.758Z,86.38
2022-11-29T13:09:57.206Z,86.38
2022-11-29T13:12:40.783Z,86.29
2022-11-29T13:15:17.064Z,86.46
2022-11-29T13:18:00.744Z,87.70
2022-11-29T13:20:58.027Z,88.05
2022-11-29T13:26:38.241Z,89.17
2022-11-29T13:29:07.818Z,89.20
2022-11-29T13:31:35.710Z,89.72
2022-11-29T13:34:15.517Z,89.70
2022-11-29T13:36:54.343Z,89.69
2022-11-29T13:39:39.582Z,89.91
2022-11-29T13:42:31.799Z,90.28
2022-11-29T13:45:07.657Z,90.73
2022-11-29T13:47:53.256Z,90.61
2022-11-29T13:50:40.748Z,90.82
2022-11-29T13:53:15.207Z,91.17
2022-11-29T13:56:15.323Z,91.26
2022-11-29T13:58:42.231Z,92.07
2022-11-29T14:01:12.814Z,92.06
2022-11-29T14:03:43.329Z,92.14
2022-11-29T14:06:15.469Z,91.76
2022-11-29T14:09:24.048Z,92.24
2022-11-29T14:12:19.019Z,92.03
2022-11-29T14:15:03.305Z,92.29
2022-11-29T14:17:51.157Z,92.56
2022-11-29T14:20:24.983Z,92.84
2022-11-29T14:23:07.843Z,92.46
2022-11-29T14:25:52.941Z,92.51
2022-11-29T14:28:22.859Z,92.95
2022-11-29T14:30:54.738Z,93.37
2022-11-29T14:33:42.301Z,93.15
2022-11-29T14:36:15.390Z,92.56
2022-11-29T14:38:48.137Z,92.83
2022-11-29T14:41:34.450Z,93.33
2022-11-29T14:44:28.319Z,93.11
2022-11-29T14:47:02.736Z,93.35
2022-11-29T14:49:36.302Z,93.29
2022-11-29T14:52:16.155Z,93.08
2022-11-29T14:55:02.338Z,93.28
2022-11-29T14:57:57.870Z,93.62
2022-11-29T15:00:30.901Z,93.41
2022-11-29T15:03:09.090Z,93.14
2022-11-29T15:05:38.914Z,93.48
2022-11-29T15:08:09.728Z,93.61
2022-11-29T15:10:42.449Z,93.91
2022-11-29T15:13:13.844Z,94.02
2022-11-29T15:15:49.891Z,94.35
2022-11-29T15:18:30.400Z,94.41
2022-11-29T15:21:24.329Z,94.31
2022-11-29T15:23:59.927Z,94.67
2022-11-29T15:26:27.028Z,94.74
2022-11-29T15:28:54.301Z,94.53
2022-11-29T15:31:21.919Z,94.32
2022-11-29T15:33:50.736Z,94.89
2022-11-29T15:36:20.747Z,94.88
2022-11-29T15:38:50.448Z,95.18
2022-11-29T15:41:35.197Z,95.34
2022-11-29T15:44:19.766Z,95.03
2022-11-29T15:46:46.708Z,95.49
2022-11-29T15:49:34.584Z,95.39
2022-11-29T15:52:07.828Z,95.22
2022-11-29T15:54:42.100Z,95.85
2022-11-29T15:57:18.913Z,95.12
2022-11-29T15:59:53.139Z,95.60
2022-11-29T16:02:25.940Z,95.79
2022-11-29T16:04:57.266Z,95.52
2022-11-29T16:07:26.922Z,95.89
2022-11-29T16:09:59.184Z,95.62
2022-11-29T16:12:26.774Z,96.08
2022-11-29T16:15:01.454Z,96.14
2022-11-29T16:17:34.072Z,95.69
2022-11-29T16:20:26.940Z,96.37
2022-11-29T16:23:14.511Z,95.71
2022-11-29T16:26:15.734Z,96.37
2022-11-29T16:28:48.250Z,96.08
2022-11-29T16:31:24.134Z,95.78
2022-11-29T16:33:52.866Z,96.11
2022-11-29T16:36:26.998Z,96.39
2022-11-29T16:39:07.453Z,96.83
2022-11-29T16:41:37.932Z,96.34
2022-11-29T16:44:06.966Z,96.22
2022-11-29T16:46:40.676Z,96.51
2022-11-29T16:49:34.708Z,96.80
2022-11-29T16:52:04.277Z,97.12
2022-11-29T16:54:34.317Z,96.72
2022-11-29T16:57:07.092Z,96.32
2022-11-29T16:59:35.491Z,96.93
2022-11-29T17:02:02.999Z,96.51
2022-11-29T17:04:30.077Z,97.22
2022-11-29T17:06:57.894Z,96.87
2022-11-29T17:09:33.281Z,97.08
2022-11-29T17:12:02.225Z,96.82
2022-11-29T17:14:30.017Z,97.16
2022-11-29T17:16:57.675Z,96.81
2022-11-29T17:19:28.980Z,96.76
2022-11-29T17:21:56.238Z,96.66
2022-11-29T17:24:24.176Z,96.29
2022-11-29T17:26:51.708Z,96.45
2022-11-29T17:29:19.134Z,96.66
2022-11-29T17:31:47.211Z,97.21
2022-11-29T17:34:14.257Z,96.73
2022-11-29T17:36:41.247Z,97.06
2022-11-29T17:39:08.843Z,97.08
2022-11-29T17:41:36.003Z,96.65
2022-11-29T17:44:03.312Z,97.35
2022-11-29T17:46:32.148Z,97.86
2022-11-29T17:49:01.459Z,98.04
2022-11-29T17:54:16.396Z,97.69
2022-11-29T17:56:43.412Z,98.12
2022-11-29T17:59:10.454Z,98.08
2022-11-29T18:01:37.744Z,97.51
2022-11-29T18:04:06.347Z,97.97
2022-11-29T18:06:40.716Z,98.18
2022-11-29T18:09:10.339Z,97.93
2022-11-29T18:11:47.687Z,97.58
2022-11-29T18:14:19.168Z,97.68
2022-11-29T18:16:46.608Z,97.10
2022-11-29T18:19:19.106Z,97.79
2022-11-29T18:21:46.795Z,97.24
2022-11-29T18:24:13.978Z,97.29
2022-11-29T18:26:41.868Z,97.79
2022-11-29T18:29:10.163Z,97.59
2022-11-29T18:31:39.972Z,97.58
2022-11-29T18:34:11.802Z,97.06
2022-11-29T18:36:45.282Z,96.57
2022-11-29T18:39:16.590Z,97.52
2022-11-29T18:41:47.088Z,97.50
2022-11-29T18:44:16.779Z,97.10
2022-11-29T18:46:45.431Z,96.60
2022-11-29T18:49:15.049Z,97.07
2022-11-29T18:51:45.041Z,96.86
2022-11-29T18:54:13.273Z,97.03
2022-11-29T18:56:40.982Z,96.60
2022-11-29T18:59:11.344Z,96.41
2022-11-29T19:01:43.400Z,96.86
2022-11-29T19:04:14.251Z,96.90
2022-11-29T19:06:42.663Z,96.89
2022-11-29T19:09:33.857Z,97.17
2022-11-29T19:12:04.079Z,97.05
2022-11-29T19:14:34.573Z,96.21
2022-11-29T19:17:02.350Z,96.19
2022-11-29T19:19:36.810Z,96.08
2022-11-29T19:22:06.635Z,96.13
2022-11-29T19:24:36.624Z,96.72
2022-11-29T19:27:04.865Z,96.20
2022-11-29T19:29:38.183Z,96.21
2022-11-29T19:32:08.581Z,96.58
2022-11-29T19:34:35.870Z,96.73
2022-11-29T19:37:03.097Z,96.09
2022-11-29T19:39:34.131Z,96.45
2022-11-29T19:42:01.219Z,96.97
2022-11-29T19:44:30.120Z,96.32
2022-11-29T19:46:59.298Z,96.17
2022-11-29T19:49:26.337Z,95.93
2022-11-29T19:51:53.797Z,95.68
2022-11-29T19:54:20.988Z,95.88
2022-11-29T19:56:48.151Z,95.60
2022-11-29T19:59:16.348Z,95.68
2022-11-29T20:01:43.841Z,96.23
2022-11-29T20:04:13.065Z,95.81
2022-11-29T20:06:40.484Z,95.62
2022-11-29T20:09:07.998Z,96.26
2022-11-29T20:11:35.468Z,95.56
2022-11-29T20:14:07.490Z,95.56
2022-11-29T20:16:35.470Z,95.68
2022-11-29T20:19:02.654Z,96.04
2022-11-29T20:21:32.509Z,95.98
2022-11-29T20:24:05.657Z,96.04
2022-11-29T20:26:35.309Z,96.04
2022-11-29T20:29:07.373Z,96.38
2022-11-29T20:31:36.255Z,95.33
2022-11-29T20:34:06.751Z,95.59
2022-11-29T20:36:43.078Z,95.34
2022-11-29T20:39:29.043Z,95.25
2022-11-29T20:41:56.056Z,95.89
2022-11-29T20:44:44.390Z,96.15
2022-11-29T20:47:23.225Z,95.56
2022-11-29T20:49:50.498Z,95.74
2022-11-29T20:52:49.345Z,95.07
2022-11-29T20:55:16.378Z,95.56
2022-11-29T20:57:48.865Z,95.62
2022-11-29T21:00:18.953Z,96.25
2022-11-29T21:02:46.278Z,95.81
2022-11-29T21:05:19.786Z,96.13
2022-11-29T21:07:46.938Z,96.37
2022-11-29T21:10:16.831Z,95.86
2022-11-29T21:12:47.581Z,96.19
2022-11-29T21:15:18.067Z,95.92
2022-11-29T21:17:45.937Z,95.89
2022-11-29T21:20:26.880Z,95.84
2022-11-29T21:23:22.495Z,95.09
2022-11-29T21:26:05.212Z,95.52
2022-11-29T21:28:47.075Z,95.71
2022-11-29T21:31:17.535Z,95.39
2022-11-29T21:33:48.051Z,95.06
2022-11-29T21:36:15.377Z,96.02
2022-11-29T21:38:43.015Z,95.41
2022-11-29T21:41:11.020Z,95.76
2022-11-29T21:44:05.574Z,95.37
2022-11-29T21:46:28.923Z,95.18
2022-11-29T21:48:58.218Z,95.72
2022-11-29T21:51:25.244Z,95.74
2022-11-29T21:53:52.260Z,95.88
2022-11-29T21:56:22.021Z,95.11
2022-11-29T21:58:51.495Z,95.87
2022-11-29T22:01:20.416Z,95.59
2022-11-29T22:03:48.204Z,95.07
2022-11-29T22:06:20.611Z,95.34
2022-11-29T22:08:48.485Z,95.49
2022-11-29T22:11:32.440Z,94.90
2022-11-29T22:14:14.038Z,95.20
2022-11-29T22:16:55.250Z,95.24
2022-11-29T22:19:33.792Z,95.07
2022-11-29T22:22:03.912Z,94.95
2022-11-29T22:24:36.481Z,95.67
2022-11-29T22:27:03.795Z,95.20
2022-11-29T22:29:30.804Z,95.37
2022-11-29T22:31:59.456Z,95.83
2022-11-29T22:34:27.674Z,95.54
2022-11-29T22:36:55.565Z,95.22
2022-11-29T22:39:24.074Z,95.87
2022-11-29T22:41:54.794Z,95.95
2022-11-29T22:44:23.657Z,95.76
2022-11-29T22:46:51.300Z,95.80
2022-11-29T22:49:18.329Z,95.48
2022-11-29T22:51:45.254Z,95.73
2022-11-29T22:54:15.551Z,95.01
2022-11-29T22:56:44.009Z,95.30
2022-11-29T22:59:11.049Z,95.18
2022-11-29T23:01:39.656Z,94.92
2022-11-29T23:04:10.931Z,94.74
2022-11-29T23:06:41.190Z,95.18
2022-11-29T23:09:12.225Z,94.78
2022-11-29T23:11:39.447Z,95.22
2022-11-29T23:14:06.529Z,94.58
2022-11-29T23:16:34.188Z,94.62
2022-11-29T23:19:02.704Z,95.24
2022-11-29T23:21:35.363Z,95.51
2022-11-29T23:24:03.219Z,95.08
2022-11-29T23:26:40.116Z,95.25
2022-11-29T23:29:12.776Z,94.84
2022-11-29T23:31:40.502Z,94.87
2022-11-29T23:34:07.832Z,94.89
2022-11-29T23:36:35.862Z,95.03
2022-11-29T23:39:07.215Z,94.41
2022-11-29T23:41:37.697Z,94.75
2022-11-29T23:44:05.540Z,94.13
2022-11-29T23:46:32.750Z,94.61
2022-11-29T23:48:59.778Z,94.17
2022-11-29T23:51:26.888Z,94.61
2022-11-29T23:53:55.694Z,94.15
2022-11-29T23:56:22.952Z,94.83
2022-11-29T23:58:50.222Z,94.77
